createdAt,value
2018-12-13T00:00:39.841Z,10.33
2018-12-13T00:03:08.081Z,8.87
2018-12-13T00:05:36.198Z,10.40
2018-12-13T00:08:04.306Z,9.63
2018-12-13T00:10:32.446Z,10.57
2018-12-13T00:13:00.553Z,9.47
2018-12-13T00:15:30.693Z,8.43
2018-12-13T00:17:58.798Z,11.53
2018-12-13T00:20:26.944Z,10.10
2018-12-13T00:22:55.077Z,11.00
2018-12-13T00:25:23.219Z,12.37
2018-12-13T00:27:51.332Z,12.23
2018-12-13T00:30:19.603Z,12.60
2018-12-13T00:32:47.770Z,11.90
2018-12-13T00:35:15.868Z,12.63
2018-12-13T00:37:43.976Z,13.77
2018-12-13T00:40:12.155Z,10.77
2018-12-13T00:42:40.378Z,11.53
2018-12-13T00:45:08.578Z,12.20
2018-12-13T00:47:36.696Z,12.93
2018-12-13T00:50:05.061Z,13.13
2018-12-13T00:52:33.178Z,12.70
2018-12-13T00:55:01.296Z,13.40
2018-12-13T00:57:29.451Z,14.77
2018-12-13T00:59:57.575Z,14.97
2018-12-13T01:02:25.714Z,17.13
2018-12-13T01:04:53.823Z,14.60
2018-12-13T01:07:22.032Z,13.67
2018-12-13T01:09:50.287Z,14.60
2018-12-13T01:12:18.522Z,15.80
2018-12-13T01:14:46.653Z,16.40
2018-12-13T01:17:14.766Z,13.60
2018-12-13T01:19:42.925Z,17.40
2018-12-13T01:22:11.034Z,18.63
2018-12-13T01:24:39.171Z,15.73
2018-12-13T01:27:07.285Z,18.93
2018-12-13T01:29:35.462Z,19.20
2018-12-13T01:32:03.575Z,18.43
2018-12-13T01:34:31.687Z,16.73
2018-12-13T01:36:59.861Z,19.67
2018-12-13T01:39:27.970Z,18.83
2018-12-13T01:41:56.078Z,17.30
2018-12-13T01:44:24.218Z,23.03
2018-12-13T01:46:52.373Z,18.07
2018-12-13T01:49:20.505Z,16.10
2018-12-13T01:51:48.638Z,19.43
2018-12-13T01:54:16.802Z,17.93
2018-12-13T01:56:44.914Z,18.37
2018-12-13T01:59:13.026Z,17.40
2018-12-13T02:01:41.172Z,19.47
2018-12-13T02:04:09.433Z,18.23
2018-12-13T02:06:37.557Z,17.50
2018-12-13T02:09:06.227Z,17.90
2018-12-13T02:11:34.353Z,18.03
2018-12-13T02:14:02.466Z,21.33
2018-12-13T02:16:30.606Z,19.67
2018-12-13T02:18:58.726Z,20.73
2018-12-13T02:21:26.874Z,22.53
2018-12-13T02:23:55.069Z,18.50
2018-12-13T02:26:23.266Z,19.17
2018-12-13T02:28:51.392Z,20.03
2018-12-13T02:31:19.625Z,20.97
2018-12-13T02:33:47.733Z,22.30
2018-12-13T02:36:15.852Z,20.67
2018-12-13T02:38:43.990Z,22.20
2018-12-13T02:41:12.100Z,19.23
2018-12-13T02:43:40.233Z,20.13
2018-12-13T02:46:08.337Z,17.20
2018-12-13T02:48:36.507Z,19.90
2018-12-13T02:51:04.641Z,22.90
2018-12-13T02:53:32.975Z,20.43
2018-12-13T02:56:01.162Z,25.70
2018-12-13T02:58:29.266Z,23.60
2018-12-13T03:00:57.421Z,24.17
2018-12-13T03:03:25.525Z,23.87
2018-12-13T03:05:53.794Z,24.27
2018-12-13T03:08:21.902Z,26.80
2018-12-13T03:10:50.042Z,25.17
2018-12-13T03:13:18.209Z,26.10
2018-12-13T03:15:46.462Z,29.87
2018-12-13T03:18:14.602Z,28.63
2018-12-13T03:20:42.745Z,26.20
2018-12-13T03:23:10.885Z,26.60
2018-12-13T03:25:39.030Z,30.17
2018-12-13T03:28:07.153Z,28.33
2018-12-13T03:30:35.410Z,31.50
2018-12-13T03:33:03.519Z,36.57
2018-12-13T03:35:31.630Z,32.30
2018-12-13T03:37:59.768Z,39.33
2018-12-13T03:40:27.919Z,38.30
2018-12-13T03:42:56.087Z,35.77
2018-12-13T03:45:24.234Z,38.70
2018-12-13T03:47:52.383Z,39.33
2018-12-13T03:50:20.545Z,41.70
2018-12-13T03:52:48.690Z,43.47
2018-12-13T03:55:16.807Z,45.13
2018-12-13T03:57:44.950Z,46.53
2018-12-13T04:00:13.114Z,50.47
2018-12-13T04:02:41.280Z,49.00
2018-12-13T04:05:09.442Z,49.00
2018-12-13T04:07:37.572Z,48.17
2018-12-13T04:10:05.811Z,52.50
2018-12-13T04:12:33.940Z,47.20
2018-12-13T04:15:02.074Z,45.40
2018-12-13T04:17:30.188Z,49.87
2018-12-13T04:19:58.356Z,48.07
2018-12-13T04:22:26.485Z,52.87
2018-12-13T04:24:54.618Z,49.00
2018-12-13T04:27:22.725Z,53.00
2018-12-13T04:29:50.881Z,48.90
2018-12-13T04:32:19.022Z,50.30
2018-12-13T04:34:47.151Z,51.83
2018-12-13T04:37:15.294Z,48.10
2018-12-13T04:39:43.462Z,45.13
2018-12-13T04:42:11.597Z,49.50
2018-12-13T04:44:39.794Z,45.60
2018-12-13T04:47:07.907Z,45.17
2018-12-13T04:49:36.051Z,48.10
2018-12-13T04:52:04.278Z,42.50
2018-12-13T04:54:32.390Z,41.33
2018-12-13T04:57:00.553Z,40.27
2018-12-13T04:59:28.703Z,42.50
2018-12-13T05:01:56.831Z,42.67
2018-12-13T05:04:24.995Z,45.03
2018-12-13T05:06:53.120Z,43.87
2018-12-13T05:09:21.287Z,44.10
2018-12-13T05:11:49.396Z,41.90
2018-12-13T05:14:17.542Z,43.50
2018-12-13T05:16:45.788Z,40.17
2018-12-13T05:19:13.910Z,48.30
2018-12-13T05:21:42.035Z,40.37
2018-12-13T05:24:10.209Z,40.87
2018-12-13T05:26:38.346Z,47.27
2018-12-13T05:29:06.474Z,46.80
2018-12-13T05:31:34.610Z,39.53
2018-12-13T05:34:02.745Z,47.03
2018-12-13T05:36:30.866Z,40.97
2018-12-13T05:38:59.106Z,40.13
2018-12-13T05:41:27.251Z,41.33
2018-12-13T05:43:55.361Z,43.33
2018-12-13T05:46:23.694Z,40.13
2018-12-13T05:48:51.889Z,39.20
2018-12-13T05:51:19.993Z,36.77
2018-12-13T05:53:48.132Z,39.17
2018-12-13T05:56:16.308Z,34.00
2018-12-13T05:58:44.420Z,29.20
2018-12-13T06:01:12.535Z,31.03
2018-12-13T06:03:40.697Z,35.47
2018-12-13T06:06:08.805Z,31.37
2018-12-13T06:08:36.949Z,28.17
2018-12-13T06:11:05.090Z,31.47
2018-12-13T06:13:33.201Z,30.27
2018-12-13T06:16:01.348Z,27.27
2018-12-13T06:18:29.538Z,30.40
2018-12-13T06:20:57.656Z,25.23
2018-12-13T06:23:25.793Z,27.23
2018-12-13T06:25:53.929Z,25.00
2018-12-13T06:28:22.070Z,26.13
2018-12-13T06:30:50.214Z,25.23
2018-12-13T06:33:24.688Z,26.50
2018-12-13T06:35:48.607Z,23.87
2018-12-13T06:38:16.751Z,27.23
2018-12-13T06:40:44.890Z,19.93
2018-12-13T06:43:13.031Z,22.80
2018-12-13T06:45:41.176Z,19.80
2018-12-13T06:48:09.322Z,22.57
2018-12-13T06:50:37.451Z,17.63
2018-12-13T06:53:05.606Z,21.67
2018-12-13T06:55:33.726Z,18.33
2018-12-13T06:58:01.867Z,19.20
2018-12-13T07:00:30.033Z,18.43
2018-12-13T07:02:58.144Z,20.63
2018-12-13T07:05:26.316Z,18.50
2018-12-13T07:07:54.425Z,21.07
2018-12-13T07:10:22.684Z,20.33
2018-12-13T07:12:50.795Z,18.23
2018-12-13T07:15:18.916Z,20.63
2018-12-13T07:17:48.228Z,21.50
2018-12-13T07:20:16.645Z,18.67
2018-12-13T07:22:44.778Z,18.50
2018-12-13T07:25:12.895Z,20.80
2018-12-13T07:27:41.419Z,18.23
2018-12-13T07:30:09.766Z,24.67
2018-12-13T07:32:37.954Z,20.47
2018-12-13T07:35:06.654Z,19.67
2018-12-13T07:37:34.768Z,20.47
2018-12-13T07:40:03.311Z,17.30
2018-12-13T07:42:31.431Z,17.67
2018-12-13T07:44:59.570Z,20.07
2018-12-13T07:47:27.692Z,18.37
2018-12-13T07:49:55.838Z,19.33
2018-12-13T07:52:23.955Z,18.30
2018-12-13T07:54:52.107Z,22.23
2018-12-13T07:57:20.224Z,18.87
2018-12-13T07:59:48.334Z,14.83
2018-12-13T08:02:16.476Z,16.87
2018-12-13T08:04:44.649Z,20.83
2018-12-13T08:07:12.802Z,18.00
2018-12-13T08:09:40.916Z,17.33
2018-12-13T08:12:09.058Z,14.33
2018-12-13T08:14:37.209Z,16.30
2018-12-13T08:17:05.434Z,14.23
2018-12-13T08:19:33.681Z,17.53
2018-12-13T08:22:01.800Z,16.10
2018-12-13T08:24:29.899Z,14.43
2018-12-13T08:26:58.058Z,19.37
2018-12-13T08:29:26.442Z,17.60
2018-12-13T08:31:54.573Z,14.87
2018-12-13T08:34:22.726Z,15.57
2018-12-13T08:36:50.886Z,15.47
2018-12-13T08:39:19.049Z,16.13
2018-12-13T08:41:47.195Z,14.20
2018-12-13T08:44:15.359Z,13.73
2018-12-13T08:46:43.534Z,17.07
2018-12-13T08:49:11.680Z,12.07
2018-12-13T08:51:39.867Z,13.10
2018-12-13T08:54:09.530Z,12.67
2018-12-13T08:56:37.756Z,14.47
2018-12-13T08:59:05.967Z,14.43
2018-12-13T09:01:34.097Z,13.87
2018-12-13T09:04:02.243Z,11.53
2018-12-13T09:06:30.365Z,13.17
2018-12-13T09:08:58.483Z,12.10
2018-12-13T09:11:26.575Z,13.63
2018-12-13T09:13:54.697Z,12.47
2018-12-13T09:16:22.802Z,10.63
2018-12-13T09:18:50.958Z,12.80
2018-12-13T09:21:19.084Z,11.03
2018-12-13T09:23:47.188Z,12.60
2018-12-13T09:26:15.316Z,11.30
2018-12-13T09:28:43.426Z,12.40
2018-12-13T09:31:11.654Z,11.20
2018-12-13T09:33:39.771Z,9.73
2018-12-13T09:36:07.931Z,13.80
2018-12-13T09:38:39.841Z,9.07
2018-12-13T09:41:06.246Z,10.03
2018-12-13T09:43:34.463Z,13.30
2018-12-13T09:46:02.581Z,9.87
2018-12-13T09:48:30.701Z,10.47
2018-12-13T09:50:58.846Z,9.73
2018-12-13T09:53:26.974Z,9.83
2018-12-13T09:55:55.094Z,10.00
2018-12-13T09:58:23.279Z,11.07
2018-12-13T10:00:51.395Z,10.53
2018-12-13T10:03:19.506Z,8.73
2018-12-13T10:05:47.644Z,10.30
2018-12-13T10:08:15.784Z,9.50
2018-12-13T10:10:43.920Z,9.87
2018-12-13T10:13:12.091Z,12.13
2018-12-13T10:15:40.201Z,9.77
2018-12-13T10:18:08.346Z,8.83
2018-12-13T10:20:36.459Z,8.37
2018-12-13T10:23:04.581Z,9.17
2018-12-13T10:25:32.844Z,8.30
2018-12-13T10:28:01.035Z,10.93
2018-12-13T10:30:29.137Z,9.00
2018-12-13T10:32:57.258Z,9.90
2018-12-13T10:35:25.490Z,13.33
2018-12-13T10:37:53.638Z,9.60
2018-12-13T10:40:21.777Z,8.57
2018-12-13T10:42:49.928Z,9.37
2018-12-13T10:45:18.035Z,8.73
2018-12-13T10:47:46.162Z,8.83
2018-12-13T10:50:14.298Z,8.27
2018-12-13T10:52:42.423Z,10.37
2018-12-13T10:55:10.525Z,8.67
2018-12-13T10:57:38.731Z,8.93
2018-12-13T11:00:09.117Z,9.40
2018-12-13T11:02:52.606Z,7.50
2018-12-13T11:05:21.429Z,10.77
2018-12-13T11:07:50.115Z,8.03
2018-12-13T11:10:25.361Z,7.83
2018-12-13T11:12:52.576Z,9.33
2018-12-13T11:15:20.870Z,8.27
2018-12-13T11:17:48.978Z,8.57
2018-12-13T11:20:17.097Z,8.43
2018-12-13T11:22:45.234Z,8.40
2018-12-13T11:25:13.371Z,8.20
2018-12-13T11:30:47.424Z,10.50
2018-12-13T11:33:15.742Z,10.33
2018-12-13T11:35:43.832Z,8.60
2018-12-13T11:38:11.948Z,10.93
2018-12-13T11:40:40.054Z,9.43
2018-12-13T11:43:08.214Z,10.83
2018-12-13T11:45:36.356Z,9.03
2018-12-13T11:48:04.477Z,10.20
2018-12-13T11:50:32.591Z,9.43
2018-12-13T11:53:00.746Z,8.53
2018-12-13T11:55:31.477Z,7.83
2018-12-13T11:57:59.828Z,7.73
2018-12-13T12:00:27.915Z,9.03
2018-12-13T12:02:56.098Z,10.47
2018-12-13T12:05:24.329Z,8.87
2018-12-13T12:07:52.471Z,10.00
2018-12-13T12:10:20.795Z,9.57
2018-12-13T12:12:48.963Z,8.57
2018-12-13T12:15:17.118Z,7.43
2018-12-13T12:17:45.221Z,7.87
2018-12-13T12:20:13.434Z,6.67
2018-12-13T12:22:41.570Z,8.37
2018-12-13T12:25:09.806Z,7.17
2018-12-13T12:27:37.904Z,9.00
2018-12-13T12:30:06.631Z,7.17
2018-12-13T12:32:34.750Z,6.63
2018-12-13T12:35:03.017Z,6.70
2018-12-13T12:37:31.141Z,5.63
2018-12-13T12:39:59.252Z,8.80
2018-12-13T12:42:27.401Z,8.50
2018-12-13T12:44:55.519Z,7.63
2018-12-13T12:47:23.678Z,8.27
2018-12-13T12:49:51.808Z,7.07
2018-12-13T12:52:19.974Z,6.50
2018-12-13T12:54:48.093Z,7.83
2018-12-13T12:57:16.275Z,8.53
2018-12-13T12:59:44.389Z,6.13
2018-12-13T13:02:12.496Z,6.30
2018-12-13T13:04:40.654Z,7.60
2018-12-13T13:07:09.518Z,6.57
2018-12-13T13:09:37.664Z,6.90
2018-12-13T13:12:05.792Z,10.30
2018-12-13T13:14:33.909Z,8.67
2018-12-13T13:17:02.017Z,7.27
2018-12-13T13:19:30.283Z,7.40
2018-12-13T13:21:58.430Z,7.47
2018-12-13T13:24:26.566Z,6.53
2018-12-13T13:26:54.718Z,8.90
2018-12-13T13:29:22.852Z,7.33
2018-12-13T13:31:51.342Z,6.80
2018-12-13T13:34:19.735Z,7.13
2018-12-13T13:36:47.985Z,5.60
2018-12-13T13:39:16.144Z,5.27
2018-12-13T13:41:44.573Z,7.10
2018-12-13T13:44:13.303Z,6.60
2018-12-13T13:46:41.425Z,6.40
2018-12-13T13:49:09.848Z,7.00
2018-12-13T13:51:38.064Z,5.87
2018-12-13T13:54:06.265Z,7.33
2018-12-13T13:56:34.418Z,5.27
2018-12-13T13:59:02.926Z,6.23
2018-12-13T14:01:31.103Z,5.13
2018-12-13T14:03:59.599Z,7.10
2018-12-13T14:06:27.693Z,5.23
2018-12-13T14:08:56.089Z,5.13
2018-12-13T14:11:24.437Z,6.33
2018-12-13T14:13:52.896Z,6.13
2018-12-13T14:16:21.168Z,5.47
2018-12-13T14:18:49.309Z,5.67
2018-12-13T14:21:17.627Z,5.03
2018-12-13T14:23:45.809Z,6.73
2018-12-13T14:26:13.959Z,4.90
2018-12-13T14:28:42.099Z,5.87
2018-12-13T14:31:10.254Z,6.33
2018-12-13T14:33:38.692Z,5.97
2018-12-13T14:36:07.142Z,4.47
2018-12-13T14:38:35.877Z,7.43
2018-12-13T14:41:04.097Z,4.57
2018-12-13T14:43:32.612Z,4.97
2018-12-13T14:46:00.749Z,5.67
2018-12-13T14:48:29.239Z,7.23
2018-12-13T14:50:57.633Z,7.87
2018-12-13T14:53:25.793Z,11.23
2018-12-13T14:55:54.487Z,5.13
2018-12-13T14:58:22.906Z,5.70
2018-12-13T15:00:51.284Z,5.67
2018-12-13T15:03:19.631Z,7.43
2018-12-13T15:05:48.143Z,5.40
2018-12-13T15:08:16.549Z,4.97
2018-12-13T15:10:44.979Z,5.00
2018-12-13T15:13:13.361Z,5.77
2018-12-13T15:15:41.514Z,7.07
2018-12-13T15:18:09.699Z,5.43
2018-12-13T15:20:37.846Z,4.33
2018-12-13T15:23:06.379Z,6.67
2018-12-13T15:25:34.539Z,5.67
2018-12-13T15:28:02.818Z,6.10
2018-12-13T15:30:30.997Z,6.83
2018-12-13T15:32:59.111Z,4.90
2018-12-13T15:35:27.252Z,6.53
2018-12-13T15:37:55.413Z,5.83
2018-12-13T15:40:23.519Z,7.10
2018-12-13T15:42:52.261Z,7.70
2018-12-13T15:45:22.535Z,7.73
2018-12-13T15:47:50.697Z,6.20
2018-12-13T15:50:18.794Z,7.73
2018-12-13T15:52:46.914Z,6.27
2018-12-13T15:55:15.009Z,7.10
2018-12-13T15:57:43.174Z,7.90
2018-12-13T16:00:11.450Z,8.23
2018-12-13T16:02:39.559Z,8.80
2018-12-13T16:05:07.755Z,7.77
2018-12-13T16:07:35.878Z,6.43
2018-12-13T16:10:05.502Z,6.47
2018-12-13T16:12:33.730Z,6.77
2018-12-13T16:15:01.858Z,7.07
2018-12-13T16:17:30.069Z,6.07
2018-12-13T16:19:58.225Z,7.53
2018-12-13T16:22:26.401Z,6.03
2018-12-13T16:24:54.499Z,7.77
2018-12-13T16:27:22.734Z,6.73
2018-12-13T16:29:51.450Z,7.90
2018-12-13T16:32:19.603Z,7.07
2018-12-13T16:34:47.685Z,6.93
2018-12-13T16:37:15.787Z,7.50
2018-12-13T16:39:43.888Z,7.33
2018-12-13T16:42:12.042Z,8.17
2018-12-13T16:44:40.284Z,7.13
2018-12-13T16:47:09.022Z,7.00
2018-12-13T16:49:37.154Z,7.33
2018-12-13T16:52:05.278Z,9.63
2018-12-13T16:54:33.406Z,8.40
2018-12-13T16:57:01.525Z,8.10
2018-12-13T16:59:29.673Z,7.73
2018-12-13T17:01:57.801Z,10.10
2018-12-13T17:04:25.962Z,10.77
2018-12-13T17:06:54.063Z,9.43
2018-12-13T17:09:22.170Z,8.83
2018-12-13T17:11:50.277Z,7.40
2018-12-13T17:14:18.414Z,9.60
2018-12-13T17:16:46.546Z,10.30
2018-12-13T17:19:14.765Z,11.83
2018-12-13T17:21:42.865Z,9.83
2018-12-13T17:24:11.002Z,11.57
2018-12-13T17:26:39.128Z,10.53
2018-12-13T17:29:07.252Z,10.67
2018-12-13T17:31:35.422Z,10.33
2018-12-13T17:34:03.537Z,11.23
2018-12-13T17:36:31.702Z,13.13
2018-12-13T17:38:59.833Z,12.87
2018-12-13T17:41:27.975Z,12.17
2018-12-13T17:43:56.091Z,13.57
2018-12-13T17:46:24.224Z,14.13
2018-12-13T17:48:52.390Z,14.03
2018-12-13T17:51:20.530Z,10.63
2018-12-13T17:53:48.686Z,12.07
2018-12-13T17:56:16.845Z,12.97
2018-12-13T17:58:44.982Z,11.73
2018-12-13T18:01:13.245Z,14.20
2018-12-13T18:03:41.444Z,12.60
2018-12-13T18:06:09.555Z,13.00
2018-12-13T18:08:37.660Z,15.30
2018-12-13T18:11:05.872Z,13.67
2018-12-13T18:13:36.417Z,13.80
2018-12-13T18:16:04.799Z,14.27
2018-12-13T18:18:32.969Z,14.27
2018-12-13T18:21:01.193Z,16.60
2018-12-13T18:23:29.382Z,13.43
2018-12-13T18:25:57.634Z,14.80
2018-12-13T18:28:25.757Z,14.27
2018-12-13T18:30:53.846Z,11.20
2018-12-13T18:33:21.981Z,14.67
2018-12-13T18:35:50.086Z,15.33
2018-12-13T18:38:18.513Z,13.10
2018-12-13T18:40:46.748Z,12.37
2018-12-13T18:43:14.849Z,14.30
2018-12-13T18:45:42.973Z,12.70
2018-12-13T18:48:11.277Z,14.03
2018-12-13T18:50:39.401Z,17.53
2018-12-13T18:53:07.879Z,14.20
2018-12-13T18:55:36.085Z,13.53
2018-12-13T18:58:04.237Z,14.20
2018-12-13T19:00:32.396Z,14.27
2018-12-13T19:03:02.689Z,14.47
2018-12-13T19:05:31.184Z,13.97
2018-12-13T19:07:59.570Z,15.03
2018-12-13T19:10:30.268Z,13.93
2018-12-13T19:12:58.694Z,17.03
2018-12-13T19:15:30.865Z,15.73
2018-12-13T19:17:59.550Z,17.70
2018-12-13T19:20:28.013Z,18.30
2018-12-13T19:22:56.485Z,14.83
2018-12-13T19:25:25.091Z,18.40
2018-12-13T19:27:53.525Z,17.93
2018-12-13T19:30:21.944Z,14.67
2018-12-13T19:32:50.086Z,16.73
2018-12-13T19:35:19.467Z,14.43
2018-12-13T19:37:52.287Z,16.93
2018-12-13T19:40:20.758Z,16.70
2018-12-13T19:42:48.861Z,16.33
2018-12-13T19:45:20.757Z,15.23
2018-12-13T19:47:49.055Z,15.07
2018-12-13T19:50:17.183Z,17.10
2018-12-13T19:52:46.906Z,14.67
2018-12-13T19:55:20.196Z,15.93
2018-12-13T19:57:48.323Z,18.43
2018-12-13T20:00:16.798Z,15.63
2018-12-13T20:02:45.185Z,17.03
2018-12-13T20:05:13.672Z,18.37
2018-12-13T20:07:42.192Z,15.97
2018-12-13T20:10:10.316Z,19.13
2018-12-13T20:12:38.420Z,18.43
2018-12-13T20:15:10.633Z,18.23
2018-12-13T20:17:42.884Z,18.87
2018-12-13T20:20:15.829Z,20.03
2018-12-13T20:22:47.794Z,17.00
2018-12-13T20:25:19.062Z,15.70
2018-12-13T20:27:51.897Z,18.83
2018-12-13T20:30:25.184Z,18.47
2018-12-13T20:32:54.547Z,19.23
2018-12-13T20:35:26.268Z,17.53
2018-12-13T20:37:59.611Z,19.90
2018-12-13T20:40:29.906Z,20.13
2018-12-13T20:42:58.069Z,17.40
2018-12-13T20:45:26.182Z,20.93
2018-12-13T20:47:54.332Z,18.67
2018-12-13T20:50:24.659Z,16.00
2018-12-13T20:52:57.704Z,17.07
2018-12-13T20:55:30.891Z,19.80
2018-12-13T20:58:02.499Z,18.70
2018-12-13T21:00:35.285Z,17.30
2018-12-13T21:03:07.061Z,19.07
2018-12-13T21:05:38.592Z,19.77
2018-12-13T21:08:09.678Z,17.60
2018-12-13T21:10:40.455Z,19.07
2018-12-13T21:13:08.586Z,20.57
2018-12-13T21:15:40.616Z,18.63
2018-12-13T21:18:12.951Z,18.87
2018-12-13T21:20:45.935Z,20.27
2018-12-13T21:23:17.512Z,21.47
2018-12-13T21:25:45.679Z,18.80
2018-12-13T21:28:16.101Z,18.47
2018-12-13T21:30:44.319Z,20.30
2018-12-13T21:33:12.552Z,18.13
2018-12-13T21:35:40.726Z,18.73
2018-12-13T21:38:08.871Z,19.27
2018-12-13T21:40:37.146Z,16.93
2018-12-13T21:43:05.315Z,19.23
2018-12-13T21:45:33.457Z,18.73
2018-12-13T21:48:01.614Z,19.50
2018-12-13T21:50:29.966Z,17.10
2018-12-13T21:52:58.100Z,19.90
2018-12-13T21:55:26.251Z,18.67
2018-12-13T21:57:54.416Z,19.07
2018-12-13T22:00:22.554Z,20.70
2018-12-13T22:02:50.661Z,21.20
2018-12-13T22:05:18.826Z,22.07
2018-12-13T22:07:46.954Z,21.20
2018-12-13T22:10:15.093Z,20.53
2018-12-13T22:12:43.258Z,18.63
2018-12-13T22:15:13.189Z,19.80
2018-12-13T22:17:41.505Z,20.33
2018-12-13T22:20:09.712Z,19.83
2018-12-13T22:22:38.026Z,20.03
2018-12-13T22:25:06.563Z,19.50
2018-12-13T22:27:34.729Z,20.80
2018-12-13T22:30:03.851Z,22.47
2018-12-13T22:32:32.095Z,22.43
2018-12-13T22:35:00.374Z,20.00
2018-12-13T22:37:28.637Z,21.73
2018-12-13T22:39:56.848Z,25.73
2018-12-13T22:42:25.010Z,23.93
2018-12-13T22:44:53.126Z,23.77
2018-12-13T22:47:21.262Z,22.30
2018-12-13T22:49:49.397Z,25.53
2018-12-13T22:52:17.589Z,19.03
2018-12-13T22:54:45.702Z,23.93
2018-12-13T22:57:13.818Z,24.33
2018-12-13T22:59:41.952Z,24.03
2018-12-13T23:02:10.164Z,22.47
2018-12-13T23:04:38.292Z,22.30
2018-12-13T23:07:06.409Z,23.30
2018-12-13T23:09:34.546Z,27.40
2018-12-13T23:12:02.682Z,22.30
2018-12-13T23:14:30.843Z,23.03
2018-12-13T23:16:59.047Z,21.30
2018-12-13T23:19:27.186Z,21.57
2018-12-13T23:21:55.317Z,26.73
2018-12-13T23:24:23.481Z,27.27
2018-12-13T23:26:51.592Z,22.63
2018-12-13T23:29:19.710Z,21.60
2018-12-13T23:31:47.850Z,23.27
2018-12-13T23:34:15.956Z,23.27
2018-12-13T23:36:44.095Z,20.60
2018-12-13T23:39:12.241Z,25.20
2018-12-13T23:41:40.409Z,22.37
2018-12-13T23:44:08.544Z,22.07
2018-12-13T23:46:36.677Z,22.00
2018-12-13T23:49:04.809Z,21.33
2018-12-13T23:51:32.949Z,21.93
2018-12-13T23:54:01.109Z,24.27
2018-12-13T23:56:29.246Z,18.37
2018-12-13T23:58:57.576Z,22.93
